Time;durP1;ratioP1;P1;durP2;ratioP2;P2;SDS_P1;SDS_P2;PMS_P1;PMS_P2;Temp;Humidity;BMP_temperature;BMP_pressure;BME280_temperature;BME280_humidity;BME280_pressure;Samples;Min_cycle;Max_cycle;Signal;HPM_P1;HPM_P2
2022/09/12 00:00:43;;;;;;;7.20;6.00;;;14.80;99.90;;;;;;7385245;19;20428;-54
2022/09/12 00:03:12;;;;;;;8.03;6.57;;;14.90;99.90;;;;;;7385437;19;20932;-54
2022/09/12 00:05:45;;;;;;;8.37;5.73;;;14.90;99.90;;;;;;7385590;19;20368;-54
2022/09/12 00:08:16;;;;;;;9.30;6.97;;;15.00;99.90;;;;;;7379583;19;20530;-54
2022/09/12 00:10:46;;;;;;;8.40;6.17;;;14.70;99.90;;;;;;7383823;19;20999;-54
2022/09/12 00:13:15;;;;;;;7.87;6.17;;;14.60;99.90;;;;;;7384920;19;21583;-55
2022/09/12 00:15:49;;;;;;;8.13;6.40;;;14.60;99.90;;;;;;7383104;19;20455;-54
2022/09/12 00:18:19;;;;;;;10.03;7.90;;;14.80;99.90;;;;;;7387413;19;20371;-53
2022/09/12 00:20:49;;;;;;;7.97;6.93;;;14.90;99.90;;;;;;7383083;19;20871;-47
2022/09/12 00:23:19;;;;;;;7.83;6.43;;;14.90;99.90;;;;;;7384684;19;20796;-46
2022/09/12 00:25:50;;;;;;;7.30;6.30;;;14.80;99.90;;;;;;7387144;19;21036;-46
2022/09/12 00:28:20;;;;;;;8.27;6.40;;;14.90;99.90;;;;;;7377579;19;20446;-46
2022/09/12 00:30:54;;;;;;;8.80;6.70;;;14.80;99.90;;;;;;7367300;19;20376;-46
2022/09/12 00:33:23;;;;;;;8.77;7.50;;;14.80;99.90;;;;;;7369065;19;21446;-46
2022/09/12 00:35:54;;;;;;;9.77;7.73;;;14.80;99.90;;;;;;7381000;19;20382;-46
2022/09/12 00:38:23;;;;;;;9.33;7.10;;;14.60;99.90;;;;;;7379096;19;20913;-46
2022/09/12 00:40:53;;;;;;;10.77;7.60;;;14.80;99.90;;;;;;7384297;19;20376;-46
2022/09/12 00:43:37;;;;;;;14.80;7.27;;;14.90;99.90;;;;;;7384619;19;20496;-46
2022/09/12 00:46:18;;;;;;;11.80;7.33;;;15.00;99.90;;;;;;7384657;19;20777;-46
2022/09/12 00:48:53;;;;;;;11.60;8.63;;;14.90;99.90;;;;;;7381683;19;20372;-46
2022/09/12 00:51:23;;;;;;;10.00;7.47;;;15.00;99.90;;;;;;7383955;19;20399;-54
2022/09/12 00:53:55;;;;;;;10.97;6.77;;;15.00;99.90;;;;;;7368683;19;21104;-55
2022/09/12 00:56:29;;;;;;;8.40;7.07;;;14.90;99.90;;;;;;7364908;19;20395;-53
2022/09/12 00:59:03;;;;;;;8.67;7.17;;;14.70;99.90;;;;;;7382880;19;20770;-54
2022/09/12 01:01:35;;;;;;;10.90;7.80;;;14.70;99.90;;;;;;7375344;19;20452;-54
2022/09/12 01:04:05;;;;;;;11.07;8.10;;;14.80;99.90;;;;;;7382995;19;20711;-53
2022/09/12 01:06:38;;;;;;;9.77;7.70;;;14.80;99.90;;;;;;7383020;19;20379;-53
2022/09/12 01:09:08;;;;;;;9.07;7.17;;;14.60;99.90;;;;;;7383322;19;20488;-54
2022/09/12 01:11:40;;;;;;;8.83;7.37;;;14.60;99.90;;;;;;7383364;19;20473;-54
2022/09/12 01:14:10;;;;;;;7.87;7.07;;;14.50;99.90;;;;;;7387136;19;20380;-54
2022/09/12 01:16:43;;;;;;;8.30;7.13;;;14.20;99.90;;;;;;7381593;19;20482;-54
2022/09/12 01:19:42;;;;;;;12.60;7.67;;;14.20;99.90;;;;;;7386317;19;20390;-54
2022/09/12 01:22:29;;;;;;;9.47;7.63;;;14.10;99.90;;;;;;7378711;19;20389;-55
2022/09/12 01:25:11;;;;;;;11.23;7.30;;;14.00;99.90;;;;;;7383067;19;20751;-54
2022/09/12 01:27:58;;;;;;;10.63;8.03;;;14.10;99.90;;;;;;7384749;19;21013;-54
2022/09/12 01:30:47;;;;;;;8.90;7.10;;;14.00;99.90;;;;;;7376761;19;20975;-54
2022/09/12 01:33:54;;;;;;;10.83;7.60;;;14.10;99.90;;;;;;7387381;19;20372;-54
2022/09/12 01:36:42;;;;;;;12.90;8.03;;;14.20;99.90;;;;;;7379759;19;20930;-53
2022/09/12 01:39:22;;;;;;;10.23;7.20;;;14.20;99.90;;;;;;7383797;19;20757;-55
2022/09/12 01:41:57;;;;;;;10.00;7.60;;;14.20;99.90;;;;;;7380325;19;20372;-55
2022/09/12 01:44:37;;;;;;;9.93;7.03;;;14.30;99.90;;;;;;7384308;19;20387;-54
2022/09/12 01:47:15;;;;;;;10.00;8.13;;;14.40;99.90;;;;;;7377064;19;20769;-54
2022/09/12 01:49:53;;;;;;;10.60;8.20;;;14.50;99.90;;;;;;7379693;19;20372;-46
2022/09/12 01:52:27;;;;;;;11.40;8.27;;;14.70;99.90;;;;;;7376307;19;20376;-46
2022/09/12 01:55:03;;;;;;;10.27;8.13;;;14.50;99.90;;;;;;7378541;19;20926;-46
2022/09/12 01:57:41;;;;;;;10.73;7.80;;;14.30;99.90;;;;;;7379726;19;20964;-46
2022/09/12 02:00:13;;;;;;;12.23;8.73;;;14.40;99.90;;;;;;7380407;19;20382;-46
2022/09/12 02:02:51;;;;;;;13.00;9.03;;;14.40;99.90;;;;;;7381774;19;20816;-46
2022/09/12 02:05:29;;;;;;;12.93;9.07;;;14.20;99.90;;;;;;7378624;19;20437;-46
2022/09/12 02:08:06;;;;;;;10.03;7.80;;;14.00;99.90;;;;;;7373484;19;20396;-46
2022/09/12 02:10:43;;;;;;;10.97;8.10;;;14.10;99.90;;;;;;7377349;19;20934;-46
2022/09/12 02:13:18;;;;;;;12.30;8.33;;;14.30;99.90;;;;;;7379408;19;20391;-46
2022/09/12 02:15:57;;;;;;;12.77;8.60;;;14.20;99.90;;;;;;7382152;19;21221;-46
2022/09/12 02:18:31;;;;;;;10.53;8.90;;;14.00;99.90;;;;;;7373947;19;20388;-46
2022/09/12 02:21:03;;;;;;;13.40;9.00;;;14.00;99.90;;;;;;7376636;19;21591;-46
2022/09/12 02:23:39;;;;;;;15.30;9.27;;;14.20;99.90;;;;;;7375654;19;20379;-46
2022/09/12 02:26:16;;;;;;;14.20;9.23;;;14.30;99.90;;;;;;7379288;19;20380;-46
2022/09/12 02:28:46;;;;;;;11.97;9.00;;;14.30;99.90;;;;;;7376603;19;20481;-46
2022/09/12 02:31:22;;;;;;;10.50;8.30;;;14.30;99.90;;;;;;7373955;19;20419;-53
2022/09/12 02:34:07;;;;;;;13.50;8.40;;;14.40;99.90;;;;;;7375663;19;20376;-53
2022/09/12 02:36:42;;;;;;;13.60;9.70;;;14.30;99.90;;;;;;7372863;19;20950;-54
2022/09/12 02:39:11;;;;;;;11.60;8.97;;;14.20;99.90;;;;;;7379576;19;20459;-53
2022/09/12 02:41:41;;;;;;;13.90;9.07;;;14.00;99.90;;;;;;7377305;19;20383;-54
2022/09/12 02:44:10;;;;;;;11.20;8.73;;;14.00;99.90;;;;;;7379361;19;21097;-53
2022/09/12 02:46:43;;;;;;;11.33;8.73;;;14.00;99.90;;;;;;7375902;19;20368;-53
2022/09/12 02:49:16;;;;;;;14.33;10.10;;;14.20;99.90;;;;;;7376756;19;20447;-53
2022/09/12 02:51:49;;;;;;;14.20;8.80;;;14.00;99.90;;;;;;7376588;19;20956;-52
2022/09/12 02:54:20;;;;;;;16.77;10.67;;;13.80;99.90;;;;;;7375866;19;20499;-54
2022/09/12 02:56:50;;;;;;;15.70;9.40;;;13.90;99.90;;;;;;7382093;19;20380;-53
2022/09/12 02:59:22;;;;;;;15.00;8.43;;;14.00;99.90;;;;;;7379017;19;20394;-53
2022/09/12 03:02:08;;;;;;;11.20;8.70;;;14.00;99.90;;;;;;7376152;19;20457;-46
2022/09/12 03:04:55;;;;;;;12.03;9.30;;;14.10;99.90;;;;;;7374904;19;20372;-45
2022/09/12 03:07:39;;;;;;;12.63;9.30;;;14.20;99.90;;;;;;7377175;19;20404;-45
2022/09/12 03:10:20;;;;;;;12.90;8.87;;;14.10;99.90;;;;;;7375698;19;20406;-45
2022/09/12 03:13:05;;;;;;;13.43;8.80;;;13.90;99.90;;;;;;7381566;19;20954;-45
2022/09/12 03:15:44;;;;;;;12.00;8.80;;;13.80;99.90;;;;;;7378225;19;20376;-46
2022/09/12 03:18:33;;;;;;;15.00;8.97;;;13.90;99.90;;;;;;7376861;19;20372;-45
2022/09/12 03:21:14;;;;;;;13.70;8.87;;;13.60;99.90;;;;;;7380159;19;20911;-47
2022/09/12 03:23:48;;;;;;;13.40;8.77;;;13.70;99.90;;;;;;7380273;19;20452;-46
2022/09/12 03:26:21;;;;;;;10.63;8.50;;;13.70;99.90;;;;;;7377176;19;20369;-45
2022/09/12 03:28:52;;;;;;;11.60;7.80;;;13.70;99.90;;;;;;7372102;19;20435;-46
2022/09/12 03:31:22;;;;;;;9.00;7.27;;;13.80;99.90;;;;;;7378803;19;20388;-54
2022/09/12 03:33:51;;;;;;;9.57;8.23;;;13.90;99.90;;;;;;7382160;19;20380;-53
2022/09/12 03:36:27;;;;;;;10.60;7.67;;;13.90;99.90;;;;;;7377805;19;20943;-53
2022/09/12 03:38:59;;;;;;;9.80;8.77;;;13.90;99.90;;;;;;7373203;19;20380;-53
2022/09/12 03:41:28;;;;;;;12.10;9.10;;;13.70;99.90;;;;;;7380691;19;20372;-53
2022/09/12 03:43:58;;;;;;;12.40;8.27;;;13.70;99.90;;;;;;7379640;19;20393;-53
2022/09/12 03:46:27;;;;;;;14.10;9.67;;;13.80;99.90;;;;;;7377961;19;20380;-54
2022/09/12 03:48:57;;;;;;;10.33;7.00;;;13.80;99.90;;;;;;7377576;19;20384;-54
2022/09/12 03:51:31;;;;;;;11.60;8.77;;;13.80;99.90;;;;;;7380435;19;20384;-52
2022/09/12 03:54:01;;;;;;;12.87;9.23;;;13.60;99.90;;;;;;7373858;19;20395;-53
2022/09/12 03:56:30;;;;;;;14.20;8.87;;;13.50;99.90;;;;;;7376625;19;22415;-53
2022/09/12 03:59:00;;;;;;;8.77;7.60;;;13.40;99.90;;;;;;7376549;19;20368;-54
2022/09/12 04:01:29;;;;;;;11.17;8.77;;;13.50;99.90;;;;;;7369339;19;20436;-45
2022/09/12 04:03:59;;;;;;;13.23;8.90;;;13.40;99.90;;;;;;7379026;19;20389;-45
2022/09/12 04:06:31;;;;;;;13.73;9.30;;;13.40;99.90;;;;;;7373361;19;20380;-45
2022/09/12 04:09:00;;;;;;;11.40;8.33;;;13.40;99.90;;;;;;7370016;19;20384;-45
2022/09/12 04:11:31;;;;;;;13.47;8.90;;;13.20;99.90;;;;;;7361251;19;20381;-45
2022/09/12 04:14:00;;;;;;;14.40;8.57;;;13.00;99.90;;;;;;7374130;19;20459;-45
2022/09/12 04:16:31;;;;;;;13.07;8.93;;;12.90;99.90;;;;;;7376532;19;20376;-45
2022/09/12 04:19:00;;;;;;;12.90;8.40;;;12.90;99.90;;;;;;7377258;19;20761;-45
2022/09/12 04:21:32;;;;;;;14.80;9.23;;;13.00;99.90;;;;;;7377736;19;20443;-45
2022/09/12 04:24:02;;;;;;;12.93;8.37;;;13.20;99.90;;;;;;7378189;19;20387;-45
2022/09/12 04:26:33;;;;;;;13.60;7.57;;;13.10;99.90;;;;;;7377387;19;20712;-47
2022/09/12 04:29:03;;;;;;;11.20;8.17;;;13.20;99.90;;;;;;7379035;19;20409;-45
2022/09/12 04:31:32;;;;;;;10.83;7.90;;;13.20;99.90;;;;;;7375334;19;21301;-44
2022/09/12 04:34:04;;;;;;;12.40;8.37;;;13.20;99.90;;;;;;7377213;19;20368;-47
2022/09/12 04:36:36;;;;;;;11.03;8.77;;;13.20;99.90;;;;;;7364898;19;20368;-47
2022/09/12 04:39:07;;;;;;;9.30;7.47;;;13.30;99.90;;;;;;7380028;19;20372;-47
2022/09/12 04:41:38;;;;;;;10.40;7.80;;;13.40;99.90;;;;;;7378215;19;20452;-46
2022/09/12 04:44:09;;;;;;;10.43;8.13;;;13.40;99.90;;;;;;7382004;19;20787;-46
2022/09/12 04:46:43;;;;;;;9.47;7.53;;;13.30;99.90;;;;;;7376656;19;21794;-47
2022/09/12 04:49:18;;;;;;;10.77;8.07;;;13.10;99.90;;;;;;7385743;19;20476;-47
2022/09/12 04:51:50;;;;;;;11.70;8.20;;;13.10;99.90;;;;;;7378751;19;20648;-46
2022/09/12 04:54:21;;;;;;;11.93;8.40;;;13.10;99.90;;;;;;7386250;19;20728;-47
2022/09/12 04:56:53;;;;;;;12.63;8.03;;;13.00;99.90;;;;;;7382471;19;20887;-47
2022/09/12 04:59:23;;;;;;;9.90;7.40;;;13.30;99.90;;;;;;7386052;19;20370;-47
2022/09/12 05:01:53;;;;;;;11.00;7.67;;;13.30;99.90;;;;;;7377223;19;20986;-48
2022/09/12 05:04:23;;;;;;;9.50;8.37;;;13.40;99.90;;;;;;7387518;19;20364;-47
2022/09/12 05:06:55;;;;;;;11.70;8.33;;;13.40;99.90;;;;;;7378502;19;20376;-46
2022/09/12 05:09:24;;;;;;;11.47;7.90;;;13.00;99.90;;;;;;7375090;19;20407;-46
2022/09/12 05:11:54;;;;;;;13.33;8.73;;;12.90;99.90;;;;;;7380505;19;20409;-44
2022/09/12 05:14:23;;;;;;;10.60;7.87;;;13.00;99.90;;;;;;7385798;19;20376;-46
2022/09/12 05:16:52;;;;;;;10.77;8.50;;;13.20;99.90;;;;;;7382300;19;20459;-47
2022/09/12 05:19:22;;;;;;;13.93;10.53;;;13.50;99.90;;;;;;7378924;19;20368;-47
2022/09/12 05:21:51;;;;;;;9.80;7.43;;;13.60;99.90;;;;;;7381969;19;20372;-47
2022/09/12 05:24:23;;;;;;;12.53;8.70;;;13.50;99.90;;;;;;7375537;19;20372;-46
2022/09/12 05:26:53;;;;;;;9.90;7.30;;;13.20;99.90;;;;;;7383686;19;20401;-47
2022/09/12 05:29:23;;;;;;;13.23;7.87;;;13.10;99.90;;;;;;7382036;19;20397;-47
2022/09/12 05:31:53;;;;;;;12.93;8.30;;;13.20;99.90;;;;;;7386684;19;20754;-52
2022/09/12 05:34:23;;;;;;;11.50;8.77;;;13.10;99.90;;;;;;7376952;19;21713;-55
2022/09/12 05:36:53;;;;;;;10.10;7.80;;;13.30;99.90;;;;;;7375639;19;20427;-56
2022/09/12 05:39:25;;;;;;;11.90;8.40;;;13.50;99.90;;;;;;7384622;19;20387;-56
2022/09/12 05:41:56;;;;;;;11.00;8.50;;;13.70;99.90;;;;;;7386724;19;20380;-55
2022/09/12 05:44:27;;;;;;;8.47;7.10;;;13.90;99.90;;;;;;7385413;19;20368;-55
2022/09/12 05:46:56;;;;;;;11.03;8.13;;;14.00;99.90;;;;;;7385786;19;20368;-54
2022/09/12 05:49:25;;;;;;;13.50;8.40;;;14.20;99.90;;;;;;7382125;19;20385;-55
2022/09/12 05:51:55;;;;;;;14.90;7.50;;;14.40;99.90;;;;;;7386204;19;20380;-55
2022/09/12 05:54:27;;;;;;;12.50;8.67;;;14.20;99.90;;;;;;7385314;19;20769;-56
2022/09/12 05:56:56;;;;;;;12.93;8.40;;;14.20;99.90;;;;;;7386308;19;20412;-57
2022/09/12 05:59:27;;;;;;;10.70;8.00;;;14.20;99.90;;;;;;7386223;19;20409;-55
2022/09/12 06:01:56;;;;;;;11.00;8.00;;;14.20;99.90;;;;;;7379722;19;20432;-47
2022/09/12 06:04:26;;;;;;;10.43;7.93;;;14.20;99.90;;;;;;7384670;19;20499;-47
2022/09/12 06:06:56;;;;;;;12.27;8.17;;;14.30;99.90;;;;;;7384215;19;20383;-47
2022/09/12 06:09:28;;;;;;;15.80;11.07;;;14.40;99.90;;;;;;7381648;19;20404;-47
2022/09/12 06:11:57;;;;;;;16.07;11.57;;;14.30;99.90;;;;;;7387196;19;20937;-47
2022/09/12 06:14:29;;;;;;;13.07;11.03;;;14.20;99.90;;;;;;7386654;19;20376;-47
2022/09/12 06:16:58;;;;;;;14.47;11.13;;;14.00;99.90;;;;;;7385464;19;20384;-47
2022/09/12 06:19:31;;;;;;;17.73;9.87;;;14.20;99.90;;;;;;7383235;19;20393;-47
2022/09/12 06:22:00;;;;;;;12.83;9.60;;;14.20;99.90;;;;;;7385984;19;20735;-47
2022/09/12 06:24:32;;;;;;;18.90;11.60;;;14.00;99.90;;;;;;7386622;19;20417;-47
2022/09/12 06:27:01;;;;;;;17.90;10.43;;;14.00;99.90;;;;;;7383625;19;20384;-47
2022/09/12 06:29:31;;;;;;;16.33;9.73;;;14.10;99.90;;;;;;7384015;19;20380;-47
2022/09/12 06:32:01;;;;;;;14.70;11.00;;;14.30;99.90;;;;;;7385842;19;20372;-47
2022/09/12 06:34:30;;;;;;;19.63;11.40;;;14.40;99.90;;;;;;7384789;19;20360;-47
2022/09/12 06:37:03;;;;;;;14.77;11.27;;;14.10;99.90;;;;;;7387672;19;20385;-46
2022/09/12 06:39:38;;;;;;;16.57;11.83;;;14.00;99.90;;;;;;7383441;19;20380;-47
2022/09/12 06:42:07;;;;;;;15.67;12.07;;;13.90;99.90;;;;;;7384519;19;20898;-47
2022/09/12 06:44:38;;;;;;;14.93;10.50;;;14.10;99.90;;;;;;7383298;19;20475;-47
2022/09/12 06:47:22;;;;;;;16.60;12.37;;;14.10;99.90;;;;;;7382077;19;20910;-46
2022/09/12 06:49:52;;;;;;;16.63;11.40;;;14.20;99.90;;;;;;7381928;19;20384;-46
2022/09/12 06:52:21;;;;;;;15.73;11.27;;;14.40;99.90;;;;;;7379260;19;20455;-46
2022/09/12 06:54:53;;;;;;;17.67;10.10;;;14.60;99.90;;;;;;7383338;19;20372;-47
2022/09/12 06:57:23;;;;;;;15.60;10.90;;;14.90;99.90;;;;;;7381686;19;20380;-47
2022/09/12 06:59:53;;;;;;;14.53;11.00;;;15.20;99.90;;;;;;7381268;19;20394;-55
2022/09/12 07:02:24;;;;;;;15.13;9.90;;;15.50;99.90;;;;;;7375064;19;20435;-56
2022/09/12 07:04:53;;;;;;;15.60;9.87;;;15.70;99.90;;;;;;7384629;19;20393;-56
2022/09/12 07:07:23;;;;;;;13.40;10.23;;;15.90;99.90;;;;;;7376800;19;20484;-56
2022/09/12 07:09:57;;;;;;;17.70;11.67;;;16.10;99.90;;;;;;7379859;19;20414;-55
2022/09/12 07:12:26;;;;;;;15.90;11.47;;;16.30;99.90;;;;;;7384265;19;20451;-56
2022/09/12 07:14:56;;;;;;;13.17;9.93;;;16.50;99.90;;;;;;7375756;19;20439;-56
2022/09/12 07:17:25;;;;;;;11.37;8.97;;;16.80;99.90;;;;;;7380972;19;20368;-56
2022/09/12 07:19:55;;;;;;;13.00;9.27;;;17.10;99.90;;;;;;7381483;19;20413;-56
2022/09/12 07:22:24;;;;;;;13.57;10.00;;;17.30;99.90;;;;;;7384769;19;20367;-56
2022/09/12 07:24:56;;;;;;;11.10;9.20;;;17.60;99.90;;;;;;7382509;19;20477;-56
2022/09/12 07:27:26;;;;;;;14.90;10.33;;;17.60;99.90;;;;;;7385400;19;20384;-56
2022/09/12 07:29:55;;;;;;;14.07;8.90;;;17.80;99.90;;;;;;7381796;19;20400;-48
2022/09/12 07:32:24;;;;;;;11.63;8.60;;;18.20;99.90;;;;;;7383702;19;20443;-48
2022/09/12 07:34:54;;;;;;;12.20;8.33;;;18.20;99.90;;;;;;7382030;19;20368;-48
2022/09/12 07:37:23;;;;;;;10.33;8.50;;;18.50;99.90;;;;;;7380993;19;20389;-54
2022/09/12 07:39:56;;;;;;;12.13;7.60;;;18.80;99.90;;;;;;7382014;19;20380;-56
2022/09/12 07:42:25;;;;;;;8.33;7.43;;;19.00;98.00;;;;;;7382806;19;20381;-54
2022/09/12 07:44:55;;;;;;;9.07;7.70;;;19.10;98.90;;;;;;7385510;19;20918;-54
2022/09/12 07:47:24;;;;;;;7.93;6.60;;;19.40;95.20;;;;;;7385333;19;20391;-57
2022/09/12 07:49:54;;;;;;;9.43;6.20;;;19.50;94.00;;;;;;7382527;19;20376;-57
2022/09/12 07:52:23;;;;;;;16.03;12.00;;;19.60;93.90;;;;;;7390056;19;20376;-54
2022/09/12 07:54:55;;;;;;;16.00;11.20;;;19.60;92.80;;;;;;7389461;19;20411;-57
2022/09/12 07:57:25;;;;;;;8.20;5.67;;;19.90;91.60;;;;;;7392995;19;20406;-53
2022/09/12 07:59:54;;;;;;;8.30;7.20;;;20.00;90.50;;;;;;7386760;19;20383;-46
2022/09/12 08:02:26;;;;;;;8.70;6.93;;;20.00;90.00;;;;;;7385417;19;20447;-47
2022/09/12 08:04:55;;;;;;;8.53;7.50;;;19.90;91.10;;;;;;7379447;19;20413;-47
2022/09/12 08:07:25;;;;;;;9.27;7.30;;;19.80;91.00;;;;;;7387070;19;20425;-47
2022/09/12 08:09:57;;;;;;;11.37;8.27;;;19.80;90.60;;;;;;7388059;19;20944;-56
2022/09/12 08:12:27;;;;;;;10.20;7.73;;;19.70;90.80;;;;;;7387656;19;20715;-56
2022/09/12 08:14:56;;;;;;;10.40;7.50;;;19.60;91.20;;;;;;7393092;19;20375;-55
2022/09/12 08:17:26;;;;;;;10.03;7.87;;;19.60;91.20;;;;;;7396329;19;20438;-55
2022/09/12 08:19:55;;;;;;;9.80;7.40;;;19.60;90.80;;;;;;7390695;19;20965;-56
2022/09/12 08:22:25;;;;;;;9.30;7.43;;;19.50;90.90;;;;;;7390581;19;20463;-56
2022/09/12 08:24:57;;;;;;;8.00;6.97;;;19.60;92.10;;;;;;7384902;19;20372;-54
2022/09/12 08:27:26;;;;;;;9.23;5.60;;;20.00;90.50;;;;;;7389481;19;20380;-56
2022/09/12 08:29:56;;;;;;;6.97;5.73;;;20.50;87.90;;;;;;7387824;19;20416;-56
2022/09/12 08:32:25;;;;;;;6.73;4.90;;;21.00;84.60;;;;;;7391099;19;20372;-55
2022/09/12 08:34:58;;;;;;;6.33;5.57;;;21.60;79.80;;;;;;7385493;19;20818;-56
2022/09/12 08:37:32;;;;;;;9.57;5.70;;;22.00;76.40;;;;;;7391059;19;20414;-56
2022/09/12 08:40:05;;;;;;;6.30;5.07;;;22.60;73.90;;;;;;7390450;19;20380;-56
2022/09/12 08:42:47;;;;;;;6.93;4.50;;;23.00;70.40;;;;;;7384329;19;20918;-56
2022/09/12 08:45:21;;;;;;;5.67;5.07;;;23.50;66.90;;;;;;7383823;19;20482;-48
2022/09/12 08:47:51;;;;;;;4.80;4.00;;;23.80;65.70;;;;;;7388870;19;20368;-48
2022/09/12 08:50:23;;;;;;;11.63;5.50;;;24.20;64.90;;;;;;7387040;19;20444;-48
2022/09/12 08:52:57;;;;;;;6.40;5.50;;;24.50;62.20;;;;;;7388752;19;20397;-47
2022/09/12 08:55:34;;;;;;;8.30;5.50;;;24.60;61.60;;;;;;7385586;19;20377;-48
2022/09/12 08:58:09;;;;;;;7.27;4.60;;;24.80;60.70;;;;;;7387365;19;20395;-48
2022/09/12 09:00:47;;;;;;;8.50;4.27;;;25.30;59.70;;;;;;7387314;19;20447;-48
2022/09/12 09:03:44;;;;;;;6.57;3.67;;;25.50;58.80;;;;;;7388160;19;20376;-49
2022/09/12 09:06:33;;;;;;;7.03;4.10;;;25.70;57.60;;;;;;7386150;19;20404;-48
2022/09/12 09:09:10;;;;;;;5.90;3.87;;;26.00;56.70;;;;;;7383557;19;20403;-47
2022/09/12 09:11:58;;;;;;;3.63;3.33;;;26.30;56.40;;;;;;7387185;19;20375;-48
2022/09/12 09:14:52;;;;;;;4.17;3.77;;;26.50;56.30;;;;;;7390168;19;20397;-48
2022/09/12 09:17:27;;;;;;;4.20;3.23;;;27.00;55.20;;;;;;7388229;19;20770;-48
2022/09/12 09:20:04;;;;;;;3.33;3.03;;;27.40;52.50;;;;;;7387648;19;20714;-48
2022/09/12 09:22:44;;;;;;;3.30;2.90;;;27.80;53.40;;;;;;7388109;19;20375;-49
2022/09/12 09:25:21;;;;;;;4.23;3.50;;;28.20;51.80;;;;;;7385386;19;20383;-48
2022/09/12 09:27:59;;;;;;;5.40;3.03;;;28.10;50.90;;;;;;7385078;19;20728;-48
2022/09/12 09:30:32;;;;;;;2.30;2.10;;;28.00;52.10;;;;;;7385426;19;20380;-48
2022/09/12 09:33:06;;;;;;;1.90;1.80;;;28.30;50.00;;;;;;7387619;19;20467;-49
2022/09/12 09:35:45;;;;;;;2.53;2.20;;;28.50;47.30;;;;;;7387578;19;20368;-49
2022/09/12 09:38:26;;;;;;;2.30;1.67;;;28.40;49.30;;;;;;7386090;19;20383;-48
2022/09/12 09:41:16;;;;;;;2.57;2.37;;;28.80;47.90;;;;;;7387282;19;20953;-48
2022/09/12 09:43:48;;;;;;;2.13;1.93;;;29.10;45.90;;;;;;7387164;19;20707;-48
2022/09/12 09:46:17;;;;;;;3.00;2.37;;;29.10;47.40;;;;;;7386929;19;20420;-49
2022/09/12 09:48:50;;;;;;;2.00;1.70;;;29.00;48.50;;;;;;7386617;19;20426;-48
2022/09/12 09:51:26;;;;;;;2.60;2.17;;;28.80;45.70;;;;;;7385270;19;20429;-48
2022/09/12 09:54:00;;;;;;;2.80;2.03;;;29.20;46.80;;;;;;7385826;19;20439;-48
2022/09/12 09:56:34;;;;;;;1.77;1.67;;;29.30;45.40;;;;;;7385702;19;20387;-48
2022/09/12 09:59:18;;;;;;;2.37;2.13;;;29.00;42.80;;;;;;7385114;19;21014;-48
2022/09/12 10:01:52;;;;;;;2.63;2.00;;;28.30;44.50;;;;;;7383788;19;21421;-48
2022/09/12 10:04:23;;;;;;;1.87;1.47;;;28.80;47.20;;;;;;7383376;19;20384;-56
2022/09/12 10:06:56;;;;;;;2.80;2.03;;;29.10;43.00;;;;;;7386637;19;20405;-48
2022/09/12 10:09:27;;;;;;;2.37;1.80;;;29.10;43.00;;;;;;7384508;19;20942;-48
2022/09/12 10:12:21;;;;;;;2.23;2.00;;;29.30;45.40;;;;;;7385799;19;20376;-48
2022/09/12 10:14:59;;;;;;;1.83;1.73;;;29.30;42.80;;;;;;7385361;19;20387;-48
2022/09/12 10:17:31;;;;;;;2.30;2.00;;;29.30;43.20;;;;;;7385284;19;20406;-48
2022/09/12 10:20:01;;;;;;;2.70;1.80;;;29.80;43.70;;;;;;7384004;19;20383;-48
2022/09/12 10:22:31;;;;;;;2.07;1.90;;;29.50;43.20;;;;;;7385154;19;20408;-48
2022/09/12 10:25:02;;;;;;;2.07;1.77;;;29.60;43.00;;;;;;7384587;19;20372;-48
2022/09/12 10:27:34;;;;;;;2.07;1.87;;;29.80;44.20;;;;;;7382160;19;20909;-48
2022/09/12 10:30:09;;;;;;;2.90;1.57;;;30.00;44.00;;;;;;7384298;19;20380;-48
2022/09/12 10:32:42;;;;;;;2.20;1.80;;;30.20;40.40;;;;;;7385323;19;20360;-48
2022/09/12 10:35:20;;;;;;;2.50;1.87;;;29.60;41.60;;;;;;7382937;19;20376;-48
2022/09/12 10:37:56;;;;;;;2.10;1.60;;;30.50;40.70;;;;;;7382227;19;20364;-50
2022/09/12 10:40:27;;;;;;;1.67;1.50;;;30.50;40.20;;;;;;7386865;19;21014;-57
2022/09/12 10:42:58;;;;;;;3.57;1.63;;;30.90;39.70;;;;;;7386236;19;20376;-57
2022/09/12 10:45:34;;;;;;;1.87;1.67;;;30.70;39.70;;;;;;7385126;19;20393;-56
2022/09/12 10:48:23;;;;;;;5.40;2.73;;;29.80;39.30;;;;;;7386345;19;20372;-56
2022/09/12 10:50:55;;;;;;;1.80;1.50;;;30.40;40.90;;;;;;7385523;19;20380;-57
2022/09/12 10:53:27;;;;;;;1.93;1.70;;;30.60;40.20;;;;;;7384229;19;20864;-56
2022/09/12 10:56:16;;;;;;;2.93;2.30;;;30.00;40.20;;;;;;7384523;19;20399;-57
2022/09/12 10:59:06;;;;;;;2.20;1.73;;;30.30;41.00;;;;;;7384508;19;20941;-58
2022/09/12 11:01:43;;;;;;;1.43;1.33;;;30.30;39.60;;;;;;7383510;19;20816;-57
2022/09/12 11:04:26;;;;;;;1.63;1.53;;;30.70;38.40;;;;;;7385456;19;20972;-56
2022/09/12 11:07:24;;;;;;;1.73;1.63;;;30.70;39.10;;;;;;7383348;19;20436;-57
2022/09/12 11:10:03;;;;;;;1.40;1.30;;;30.20;39.50;;;;;;7383610;19;20399;-56
2022/09/12 11:12:40;;;;;;;1.50;1.17;;;30.20;38.60;;;;;;7382145;19;20480;-56
2022/09/12 11:15:37;;;;;;;1.47;1.37;;;29.90;39.30;;;;;;7383665;19;20395;-57
2022/09/12 11:18:23;;;;;;;2.77;1.57;;;30.30;39.60;;;;;;7383552;19;20379;-57
2022/09/12 11:21:06;;;;;;;1.77;1.67;;;30.40;41.00;;;;;;7383093;19;20369;-57
2022/09/12 11:24:08;;;;;;;1.50;1.40;;;30.40;38.80;;;;;;7385133;19;20440;-56
2022/09/12 11:27:00;;;;;;;2.70;1.57;;;30.00;39.60;;;;;;7381251;19;20483;-57
2022/09/12 11:29:44;;;;;;;1.20;1.10;;;30.20;39.90;;;;;;7383717;19;20401;-56
2022/09/12 11:32:47;;;;;;;1.93;1.40;;;29.90;39.50;;;;;;7382584;19;20388;-56
2022/09/12 11:35:26;;;;;;;2.13;1.30;;;30.00;41.40;;;;;;7379747;19;20411;-56
2022/09/12 11:38:13;;;;;;;2.90;1.20;;;30.10;39.10;;;;;;7384961;19;20368;-56
2022/09/12 11:40:47;;;;;;;1.60;1.50;;;30.00;40.20;;;;;;7378629;19;20887;-48
2022/09/12 11:43:33;;;;;;;4.90;1.60;;;29.90;38.10;;;;;;7381529;19;20443;-48
2022/09/12 11:46:13;;;;;;;2.03;1.33;;;29.30;38.10;;;;;;7384075;19;20368;-48
2022/09/12 11:48:50;;;;;;;1.50;1.30;;;29.80;38.50;;;;;;7386983;19;20408;-48
2022/09/12 11:51:27;;;;;;;1.67;1.17;;;29.70;36.90;;;;;;7390204;19;20376;-57
2022/09/12 11:54:08;;;;;;;2.83;1.30;;;29.90;39.10;;;;;;7390339;19;20888;-57
2022/09/12 11:56:43;;;;;;;1.17;1.07;;;30.20;38.10;;;;;;7391523;19;20376;-57
2022/09/12 11:59:20;;;;;;;1.73;1.27;;;30.20;36.90;;;;;;7390787;19;20435;-48
2022/09/12 12:01:56;;;;;;;1.67;0.90;;;30.50;35.10;;;;;;7387905;19;20469;-57
2022/09/12 12:04:34;;;;;;;1.37;1.00;;;31.00;38.20;;;;;;7389789;19;20405;-56
2022/09/12 12:07:09;;;;;;;1.80;0.67;;;30.50;35.90;;;;;;7388569;19;20371;-56
2022/09/12 12:09:46;;;;;;;1.60;0.80;;;29.40;35.70;;;;;;7385870;19;20391;-56
2022/09/12 12:12:23;;;;;;;5.90;0.90;;;29.60;36.40;;;;;;7386211;19;20434;-57
2022/09/12 12:14:54;;;;;;;0.77;0.63;;;30.40;36.10;;;;;;7390075;19;20383;-55
2022/09/12 12:17:26;;;;;;;1.60;0.70;;;30.00;33.70;;;;;;7391291;19;20893;-56
2022/09/12 12:20:03;;;;;;;1.10;0.70;;;29.80;34.10;;;;;;7384975;19;20388;-56
2022/09/12 12:22:36;;;;;;;1.47;0.87;;;29.60;34.20;;;;;;7389753;19;20376;-55
2022/09/12 12:25:09;;;;;;;0.80;0.80;;;29.20;34.50;;;;;;7389420;19;20384;-56
2022/09/12 12:27:54;;;;;;;1.00;0.70;;;29.00;35.70;;;;;;7387113;19;20376;-56
2022/09/12 12:31:01;;;;;;;1.13;0.90;;;29.90;38.30;;;;;;7387586;19;20958;-57
2022/09/12 12:34:06;;;;;;;1.67;1.27;;;31.00;37.50;;;;;;7388069;19;20384;-57
2022/09/12 12:36:44;;;;;;;1.37;1.00;;;31.50;35.50;;;;;;7386922;19;20921;-57
2022/09/12 12:39:47;;;;;;;1.37;1.07;;;31.70;34.80;;;;;;7391473;19;20766;-57
2022/09/12 12:43:03;;;;;;;1.20;1.10;;;31.90;34.50;;;;;;7386713;19;20379;-56
2022/09/12 12:46:11;;;;;;;0.93;0.80;;;30.20;35.60;;;;;;7387892;19;20376;-57
2022/09/12 12:49:09;;;;;;;1.13;0.93;;;30.90;36.70;;;;;;7386440;19;20379;-56
2022/09/12 12:52:00;;;;;;;1.00;0.90;;;31.00;33.50;;;;;;7384369;19;20376;-57
2022/09/12 12:54:35;;;;;;;1.50;0.93;;;31.00;33.80;;;;;;7391511;19;20387;-57
2022/09/12 12:57:17;;;;;;;1.00;0.90;;;31.10;34.40;;;;;;7385470;19;20468;-57
2022/09/12 12:59:53;;;;;;;1.70;1.30;;;31.70;35.60;;;;;;7387023;19;20870;-57
2022/09/12 13:02:27;;;;;;;1.03;0.90;;;31.60;34.30;;;;;;7384082;19;20481;-57
2022/09/12 13:05:01;;;;;;;3.63;1.40;;;31.30;32.90;;;;;;7385665;19;20780;-57
2022/09/12 13:07:35;;;;;;;0.77;0.77;;;31.60;35.10;;;;;;7389557;19;20383;-56
2022/09/12 13:10:10;;;;;;;3.17;1.60;;;31.90;33.30;;;;;;7390071;19;20368;-56
2022/09/12 13:12:48;;;;;;;1.33;1.10;;;31.00;33.10;;;;;;7386526;19;20383;-56
2022/09/12 13:15:47;;;;;;;1.10;0.77;;;31.30;35.00;;;;;;7384226;19;20426;-56
2022/09/12 13:18:22;;;;;;;1.07;0.97;;;31.40;33.70;;;;;;7361222;19;20440;-57
2022/09/12 13:20:58;;;;;;;1.63;1.10;;;31.70;33.30;;;;;;7387037;19;20401;-57